sensor_id;sensor_type;location;lat;lon;timestamp;P1;durP1;ratioP1;P2;durP2;ratioP2
51491;SDS011;37569;50.548;8.778;2023-12-28T00:01:36;6.9;;;5;;
51491;SDS011;37569;50.548;8.778;2023-12-28T00:06:36;10;;;4.8;;
51491;SDS011;37569;50.548;8.778;2023-12-28T00:11:37;7.3;;;4.7;;
51491;SDS011;37569;50.548;8.778;2023-12-28T00:16:37;6.5;;;4.8;;
51491;SDS011;37569;50.548;8.778;2023-12-28T00:21:37;6.6;;;5;;
51491;SDS011;37569;50.548;8.778;2023-12-28T00:26:38;6.6;;;4.6;;
51491;SDS011;37569;50.548;8.778;2023-12-28T00:31:38;6.9;;;4.6;;
51491;SDS011;37569;50.548;8.778;2023-12-28T00:36:38;6.9;;;4.5;;
51491;SDS011;37569;50.548;8.778;2023-12-28T00:41:38;8.4;;;4.5;;
51491;SDS011;37569;50.548;8.778;2023-12-28T00:46:39;5.9;;;4.5;;
51491;SDS011;37569;50.548;8.778;2023-12-28T00:51:39;7.3;;;4.5;;
51491;SDS011;37569;50.548;8.778;2023-12-28T00:56:39;7.4;;;4.3;;
51491;SDS011;37569;50.548;8.778;2023-12-28T01:01:40;5.8;;;4;;
51491;SDS011;37569;50.548;8.778;2023-12-28T01:06:40;7.1;;;4.5;;
51491;SDS011;37569;50.548;8.778;2023-12-28T01:11:41;6.3;;;4.4;;
51491;SDS011;37569;50.548;8.778;2023-12-28T01:16:41;5.8;;;4.5;;
51491;SDS011;37569;50.548;8.778;2023-12-28T01:21:41;6.7;;;4.3;;
51491;SDS011;37569;50.548;8.778;2023-12-28T01:26:42;7.2;;;4.8;;
51491;SDS011;37569;50.548;8.778;2023-12-28T01:31:42;7.8;;;4.4;;
51491;SDS011;37569;50.548;8.778;2023-12-28T01:36:42;5.9;;;4.4;;
51491;SDS011;37569;50.548;8.778;2023-12-28T01:41:43;6.6;;;4.3;;
51491;SDS011;37569;50.548;8.778;2023-12-28T01:46:43;5.3;;;3.9;;
51491;SDS011;37569;50.548;8.778;2023-12-28T01:51:43;6.7;;;4.3;;
51491;SDS011;37569;50.548;8.778;2023-12-28T01:56:44;7.7;;;4.5;;
51491;SDS011;37569;50.548;8.778;2023-12-28T02:01:44;5.6;;;4.3;;
51491;SDS011;37569;50.548;8.778;2023-12-28T02:06:44;5.6;;;4.4;;
51491;SDS011;37569;50.548;8.778;2023-12-28T02:11:44;6.2;;;4.5;;
51491;SDS011;37569;50.548;8.778;2023-12-28T02:16:46;6;;;4.6;;
51491;SDS011;37569;50.548;8.778;2023-12-28T02:21:45;7.4;;;4.9;;
51491;SDS011;37569;50.548;8.778;2023-12-28T02:26:45;6.1;;;4.3;;
51491;SDS011;37569;50.548;8.778;2023-12-28T02:31:46;5.5;;;4.5;;
51491;SDS011;37569;50.548;8.778;2023-12-28T02:36:46;6.2;;;4.5;;
51491;SDS011;37569;50.548;8.778;2023-12-28T02:41:46;6;;;4.5;;
51491;SDS011;37569;50.548;8.778;2023-12-28T02:46:47;5.7;;;4.3;;
51491;SDS011;37569;50.548;8.778;2023-12-28T02:51:47;6.3;;;4.4;;
51491;SDS011;37569;50.548;8.778;2023-12-28T02:56:47;5.7;;;4.6;;
51491;SDS011;37569;50.548;8.778;2023-12-28T03:01:48;6.9;;;4.6;;
51491;SDS011;37569;50.548;8.778;2023-12-28T03:06:48;6.6;;;4.9;;
51491;SDS011;37569;50.548;8.778;2023-12-28T03:11:48;6;;;4.7;;
51491;SDS011;37569;50.548;8.778;2023-12-28T03:16:48;5.8;;;4.4;;
51491;SDS011;37569;50.548;8.778;2023-12-28T03:21:49;6.7;;;4.9;;
51491;SDS011;37569;50.548;8.778;2023-12-28T03:26:49;7.4;;;4.7;;
51491;SDS011;37569;50.548;8.778;2023-12-28T03:31:49;6.8;;;4.6;;
51491;SDS011;37569;50.548;8.778;2023-12-28T03:36:50;5.7;;;4.8;;
51491;SDS011;37569;50.548;8.778;2023-12-28T03:41:50;6.5;;;4.9;;
51491;SDS011;37569;50.548;8.778;2023-12-28T03:46:51;5.3;;;4.2;;
51491;SDS011;37569;50.548;8.778;2023-12-28T03:51:51;7.7;;;5;;
51491;SDS011;37569;50.548;8.778;2023-12-28T03:56:51;5.9;;;4.5;;
51491;SDS011;37569;50.548;8.778;2023-12-28T04:01:51;5.9;;;4.7;;
51491;SDS011;37569;50.548;8.778;2023-12-28T04:06:52;6.8;;;4.7;;
51491;SDS011;37569;50.548;8.778;2023-12-28T04:11:52;7.1;;;4.7;;
51491;SDS011;37569;50.548;8.778;2023-12-28T04:16:52;6.3;;;4.5;;
51491;SDS011;37569;50.548;8.778;2023-12-28T04:21:53;6.6;;;4.5;;
51491;SDS011;37569;50.548;8.778;2023-12-28T04:26:53;7.2;;;4.4;;
51491;SDS011;37569;50.548;8.778;2023-12-28T04:31:53;5.9;;;4.4;;
51491;SDS011;37569;50.548;8.778;2023-12-28T04:36:54;6.6;;;4.6;;
51491;SDS011;37569;50.548;8.778;2023-12-28T04:41:54;6.5;;;4.7;;
51491;SDS011;37569;50.548;8.778;2023-12-28T04:46:54;6.1;;;4.5;;
51491;SDS011;37569;50.548;8.778;2023-12-28T04:51:55;5.5;;;4;;
51491;SDS011;37569;50.548;8.778;2023-12-28T04:56:55;7.5;;;4.5;;
51491;SDS011;37569;50.548;8.778;2023-12-28T05:01:56;6.2;;;4.5;;
51491;SDS011;37569;50.548;8.778;2023-12-28T05:06:56;5.6;;;4;;
51491;SDS011;37569;50.548;8.778;2023-12-28T05:11:56;7.1;;;4.3;;
51491;SDS011;37569;50.548;8.778;2023-12-28T05:16:57;4.9;;;3.9;;
51491;SDS011;37569;50.548;8.778;2023-12-28T05:21:57;6.6;;;3.9;;
51491;SDS011;37569;50.548;8.778;2023-12-28T05:26:57;6.2;;;4;;
51491;SDS011;37569;50.548;8.778;2023-12-28T05:31:58;6;;;4.1;;
51491;SDS011;37569;50.548;8.778;2023-12-28T05:36:58;6.5;;;4;;
51491;SDS011;37569;50.548;8.778;2023-12-28T05:41:58;6.3;;;4.1;;
51491;SDS011;37569;50.548;8.778;2023-12-28T05:46:59;6.4;;;4.1;;
51491;SDS011;37569;50.548;8.778;2023-12-28T05:51:59;5.4;;;4.1;;
51491;SDS011;37569;50.548;8.778;2023-12-28T05:57:00;5.6;;;3.9;;
51491;SDS011;37569;50.548;8.778;2023-12-28T06:02:00;5.2;;;4.1;;
51491;SDS011;37569;50.548;8.778;2023-12-28T06:07:01;7.4;;;4.1;;
51491;SDS011;37569;50.548;8.778;2023-12-28T06:12:01;5.2;;;3.8;;
51491;SDS011;37569;50.548;8.778;2023-12-28T06:17:01;5.6;;;3.7;;
51491;SDS011;37569;50.548;8.778;2023-12-28T06:22:01;8;;;4.5;;
51491;SDS011;37569;50.548;8.778;2023-12-28T06:27:02;6.4;;;4.6;;
51491;SDS011;37569;50.548;8.778;2023-12-28T06:32:02;8.1;;;5.1;;
51491;SDS011;37569;50.548;8.778;2023-12-28T06:37:03;5.5;;;4.7;;
51491;SDS011;37569;50.548;8.778;2023-12-28T06:42:03;7.5;;;5;;
51491;SDS011;37569;50.548;8.778;2023-12-28T06:47:03;7.7;;;5.5;;
51491;SDS011;37569;50.548;8.778;2023-12-28T06:52:04;7.8;;;5.2;;
51491;SDS011;37569;50.548;8.778;2023-12-28T06:57:04;5.6;;;5;;
51491;SDS011;37569;50.548;8.778;2023-12-28T07:02:05;7.8;;;5.3;;
51491;SDS011;37569;50.548;8.778;2023-12-28T07:07:05;6.7;;;4.9;;
51491;SDS011;37569;50.548;8.778;2023-12-28T07:12:06;7.6;;;5.2;;
51491;SDS011;37569;50.548;8.778;2023-12-28T07:17:06;7.6;;;5.2;;
51491;SDS011;37569;50.548;8.778;2023-12-28T07:22:06;6.9;;;5.4;;
51491;SDS011;37569;50.548;8.778;2023-12-28T07:27:06;7.5;;;5.6;;
51491;SDS011;37569;50.548;8.778;2023-12-28T07:32:07;8.1;;;5.6;;
51491;SDS011;37569;50.548;8.778;2023-12-28T07:37:07;7.4;;;5.6;;
51491;SDS011;37569;50.548;8.778;2023-12-28T07:42:07;7.5;;;5.1;;
51491;SDS011;37569;50.548;8.778;2023-12-28T07:47:08;6.7;;;5.2;;
51491;SDS011;37569;50.548;8.778;2023-12-28T07:52:08;7.4;;;5.4;;
51491;SDS011;37569;50.548;8.778;2023-12-28T07:57:09;8.5;;;5.7;;
51491;SDS011;37569;50.548;8.778;2023-12-28T08:02:09;7.5;;;5.7;;
51491;SDS011;37569;50.548;8.778;2023-12-28T08:07:09;7.7;;;5.6;;
51491;SDS011;37569;50.548;8.778;2023-12-28T08:12:10;6.9;;;5.2;;
51491;SDS011;37569;50.548;8.778;2023-12-28T08:17:10;7.3;;;4.8;;
51491;SDS011;37569;50.548;8.778;2023-12-28T08:22:10;7.9;;;4.9;;
51491;SDS011;37569;50.548;8.778;2023-12-28T08:27:11;6.3;;;4.8;;
51491;SDS011;37569;50.548;8.778;2023-12-28T08:32:11;7.7;;;4.8;;
51491;SDS011;37569;50.548;8.778;2023-12-28T08:37:11;6.1;;;4.8;;
51491;SDS011;37569;50.548;8.778;2023-12-28T08:42:12;5.1;;;4.5;;
51491;SDS011;37569;50.548;8.778;2023-12-28T08:47:12;6.3;;;4.4;;
51491;SDS011;37569;50.548;8.778;2023-12-28T08:52:12;5;;;4.5;;
51491;SDS011;37569;50.548;8.778;2023-12-28T08:57:13;7.1;;;4.5;;
51491;SDS011;37569;50.548;8.778;2023-12-28T09:02:13;5;;;4.5;;
51491;SDS011;37569;50.548;8.778;2023-12-28T09:07:13;5.1;;;4.2;;
51491;SDS011;37569;50.548;8.778;2023-12-28T09:12:14;5.2;;;4.1;;
51491;SDS011;37569;50.548;8.778;2023-12-28T09:17:14;5.1;;;4.3;;
51491;SDS011;37569;50.548;8.778;2023-12-28T09:22:15;4.3;;;3.7;;
51491;SDS011;37569;50.548;8.778;2023-12-28T09:27:15;5.1;;;4.6;;
51491;SDS011;37569;50.548;8.778;2023-12-28T09:32:15;5.2;;;3.8;;
51491;SDS011;37569;50.548;8.778;2023-12-28T09:37:16;5.1;;;3.9;;
51491;SDS011;37569;50.548;8.778;2023-12-28T09:42:17;6.5;;;4;;
51491;SDS011;37569;50.548;8.778;2023-12-28T09:47:16;4.9;;;3.4;;
51491;SDS011;37569;50.548;8.778;2023-12-28T09:52:17;6.6;;;3.3;;
51491;SDS011;37569;50.548;8.778;2023-12-28T09:57:17;3.5;;;3.2;;
51491;SDS011;37569;50.548;8.778;2023-12-28T10:02:18;4.4;;;3;;
51491;SDS011;37569;50.548;8.778;2023-12-28T10:07:18;3.5;;;3.2;;
51491;SDS011;37569;50.548;8.778;2023-12-28T10:12:19;6.3;;;3;;
51491;SDS011;37569;50.548;8.778;2023-12-28T10:17:19;4.7;;;3.2;;
51491;SDS011;37569;50.548;8.778;2023-12-28T10:22:19;5;;;2.8;;
51491;SDS011;37569;50.548;8.778;2023-12-28T10:27:20;3.5;;;2.8;;
51491;SDS011;37569;50.548;8.778;2023-12-28T10:32:20;4.8;;;2.8;;
51491;SDS011;37569;50.548;8.778;2023-12-28T10:37:21;4.5;;;2.9;;
51491;SDS011;37569;50.548;8.778;2023-12-28T10:42:24;4.6;;;2.7;;
51491;SDS011;37569;50.548;8.778;2023-12-28T10:47:22;3.6;;;2.5;;
51491;SDS011;37569;50.548;8.778;2023-12-28T10:52:23;4.5;;;2.7;;
51491;SDS011;37569;50.548;8.778;2023-12-28T10:57:23;4.5;;;2.9;;
51491;SDS011;37569;50.548;8.778;2023-12-28T11:02:24;3.9;;;2.2;;
51491;SDS011;37569;50.548;8.778;2023-12-28T11:07:24;4.1;;;2.1;;
51491;SDS011;37569;50.548;8.778;2023-12-28T11:12:24;3.8;;;2.1;;
51491;SDS011;37569;50.548;8.778;2023-12-28T11:17:25;3.4;;;1.9;;
51491;SDS011;37569;50.548;8.778;2023-12-28T11:22:25;3.7;;;2;;
51491;SDS011;37569;50.548;8.778;2023-12-28T11:27:32;2.4;;;1.7;;
51491;SDS011;37569;50.548;8.778;2023-12-28T11:32:26;3.6;;;1.7;;
51491;SDS011;37569;50.548;8.778;2023-12-28T11:37:27;4.3;;;1.6;;
51491;SDS011;37569;50.548;8.778;2023-12-28T11:42:27;3.4;;;1.5;;
51491;SDS011;37569;50.548;8.778;2023-12-28T11:47:28;4.9;;;1.6;;
51491;SDS011;37569;50.548;8.778;2023-12-28T11:52:29;3.3;;;1.6;;
51491;SDS011;37569;50.548;8.778;2023-12-28T11:57:29;2.1;;;1.4;;
51491;SDS011;37569;50.548;8.778;2023-12-28T12:02:29;4.1;;;1.9;;
51491;SDS011;37569;50.548;8.778;2023-12-28T12:07:30;4.4;;;1.7;;
51491;SDS011;37569;50.548;8.778;2023-12-28T12:12:30;3.4;;;1.6;;
51491;SDS011;37569;50.548;8.778;2023-12-28T12:17:31;3.7;;;1.6;;
51491;SDS011;37569;50.548;8.778;2023-12-28T12:22:31;4.9;;;1.7;;
51491;SDS011;37569;50.548;8.778;2023-12-28T12:27:32;4;;;1.6;;
51491;SDS011;37569;50.548;8.778;2023-12-28T12:32:32;4.2;;;1.4;;
51491;SDS011;37569;50.548;8.778;2023-12-28T12:37:33;3.4;;;1.6;;
51491;SDS011;37569;50.548;8.778;2023-12-28T12:42:33;2.2;;;1.5;;
51491;SDS011;37569;50.548;8.778;2023-12-28T12:47:34;4.2;;;1.7;;
51491;SDS011;37569;50.548;8.778;2023-12-28T12:52:34;3.9;;;1.5;;
51491;SDS011;37569;50.548;8.778;2023-12-28T12:57:35;3.7;;;1.5;;
51491;SDS011;37569;50.548;8.778;2023-12-28T13:02:36;3.5;;;1.4;;
51491;SDS011;37569;50.548;8.778;2023-12-28T13:07:36;2.4;;;1.2;;
51491;SDS011;37569;50.548;8.778;2023-12-28T13:12:36;4;;;1.5;;
51491;SDS011;37569;50.548;8.778;2023-12-28T13:17:37;2.7;;;1.3;;
51491;SDS011;37569;50.548;8.778;2023-12-28T13:22:37;3.5;;;1.5;;
51491;SDS011;37569;50.548;8.778;2023-12-28T13:27:38;2.9;;;1.3;;
51491;SDS011;37569;50.548;8.778;2023-12-28T13:32:38;4.8;;;1.4;;
51491;SDS011;37569;50.548;8.778;2023-12-28T13:37:39;2.9;;;1.5;;
51491;SDS011;37569;50.548;8.778;2023-12-28T13:42:39;5.6;;;1.2;;
51491;SDS011;37569;50.548;8.778;2023-12-28T13:47:40;4.2;;;1.5;;
51491;SDS011;37569;50.548;8.778;2023-12-28T13:52:40;3.2;;;1.3;;
51491;SDS011;37569;50.548;8.778;2023-12-28T13:57:41;3.8;;;1.5;;
51491;SDS011;37569;50.548;8.778;2023-12-28T14:02:41;2.5;;;1.5;;
51491;SDS011;37569;50.548;8.778;2023-12-28T14:07:42;3.5;;;1.5;;
51491;SDS011;37569;50.548;8.778;2023-12-28T14:12:42;4.3;;;1.5;;
51491;SDS011;37569;50.548;8.778;2023-12-28T14:17:42;2.1;;;1.3;;
51491;SDS011;37569;50.548;8.778;2023-12-28T14:22:43;4.5;;;1.6;;
51491;SDS011;37569;50.548;8.778;2023-12-28T14:27:44;2.6;;;1.3;;
51491;SDS011;37569;50.548;8.778;2023-12-28T14:32:44;2.7;;;1.4;;
51491;SDS011;37569;50.548;8.778;2023-12-28T14:37:44;4.1;;;1.4;;
51491;SDS011;37569;50.548;8.778;2023-12-28T14:42:45;4.7;;;1.3;;
51491;SDS011;37569;50.548;8.778;2023-12-28T14:47:45;3.6;;;1.6;;
51491;SDS011;37569;50.548;8.778;2023-12-28T14:52:46;3;;;1.7;;
51491;SDS011;37569;50.548;8.778;2023-12-28T14:57:46;4.3;;;1.9;;
51491;SDS011;37569;50.548;8.778;2023-12-28T15:02:47;3.7;;;1.5;;
51491;SDS011;37569;50.548;8.778;2023-12-28T15:07:47;6;;;1.9;;
51491;SDS011;37569;50.548;8.778;2023-12-28T15:12:48;3.5;;;2;;
51491;SDS011;37569;50.548;8.778;2023-12-28T15:17:49;3.9;;;2.4;;
51491;SDS011;37569;50.548;8.778;2023-12-28T15:22:49;3.5;;;2.4;;
51491;SDS011;37569;50.548;8.778;2023-12-28T15:27:49;5.9;;;2.8;;
51491;SDS011;37569;50.548;8.778;2023-12-28T15:32:50;3.7;;;2.4;;
51491;SDS011;37569;50.548;8.778;2023-12-28T15:37:50;5.5;;;2.5;;
51491;SDS011;37569;50.548;8.778;2023-12-28T15:42:51;4.2;;;2.8;;
51491;SDS011;37569;50.548;8.778;2023-12-28T15:47:51;3.3;;;2.6;;
51491;SDS011;37569;50.548;8.778;2023-12-28T15:52:51;6;;;3.2;;
51491;SDS011;37569;50.548;8.778;2023-12-28T15:57:52;5.9;;;2.9;;
51491;SDS011;37569;50.548;8.778;2023-12-28T16:02:52;4.3;;;2.4;;
51491;SDS011;37569;50.548;8.778;2023-12-28T16:07:53;3.3;;;2.6;;
51491;SDS011;37569;50.548;8.778;2023-12-28T16:12:53;4.5;;;2.6;;
51491;SDS011;37569;50.548;8.778;2023-12-28T16:17:54;2.5;;;2.3;;
51491;SDS011;37569;50.548;8.778;2023-12-28T16:22:54;4.7;;;2.2;;
51491;SDS011;37569;50.548;8.778;2023-12-28T16:27:55;3.7;;;2.2;;
51491;SDS011;37569;50.548;8.778;2023-12-28T16:32:55;2.4;;;2;;
51491;SDS011;37569;50.548;8.778;2023-12-28T16:37:56;3;;;2;;
51491;SDS011;37569;50.548;8.778;2023-12-28T16:42:56;2.6;;;1.9;;
51491;SDS011;37569;50.548;8.778;2023-12-28T16:47:56;3.7;;;1.9;;
51491;SDS011;37569;50.548;8.778;2023-12-28T16:52:57;2.2;;;1.8;;
51491;SDS011;37569;50.548;8.778;2023-12-28T16:57:57;2.2;;;1.7;;
51491;SDS011;37569;50.548;8.778;2023-12-28T17:02:58;3.5;;;1.6;;
51491;SDS011;37569;50.548;8.778;2023-12-28T17:07:58;2;;;1.7;;
51491;SDS011;37569;50.548;8.778;2023-12-28T17:12:59;4.7;;;2.1;;
51491;SDS011;37569;50.548;8.778;2023-12-28T17:17:59;2.6;;;2;;
51491;SDS011;37569;50.548;8.778;2023-12-28T17:23:01;2.8;;;2.1;;
51491;SDS011;37569;50.548;8.778;2023-12-28T17:28:02;3.1;;;2.2;;
51491;SDS011;37569;50.548;8.778;2023-12-28T17:33:01;3.5;;;2;;
51491;SDS011;37569;50.548;8.778;2023-12-28T17:38:01;3;;;2.2;;
51491;SDS011;37569;50.548;8.778;2023-12-28T17:43:03;2.7;;;2;;
51491;SDS011;37569;50.548;8.778;2023-12-28T17:48:04;3.7;;;2.2;;
51491;SDS011;37569;50.548;8.778;2023-12-28T17:53:02;3.8;;;2.3;;
51491;SDS011;37569;50.548;8.778;2023-12-28T17:58:02;3.2;;;2.4;;
51491;SDS011;37569;50.548;8.778;2023-12-28T18:03:03;3.1;;;2.4;;
51491;SDS011;37569;50.548;8.778;2023-12-28T18:08:04;5.1;;;3;;
51491;SDS011;37569;50.548;8.778;2023-12-28T18:13:04;4.5;;;2.8;;
51491;SDS011;37569;50.548;8.778;2023-12-28T18:18:04;4.3;;;2.6;;
51491;SDS011;37569;50.548;8.778;2023-12-28T18:23:04;3.5;;;2.5;;
51491;SDS011;37569;50.548;8.778;2023-12-28T18:28:05;3;;;2.6;;
51491;SDS011;37569;50.548;8.778;2023-12-28T18:33:05;4;;;2.3;;
51491;SDS011;37569;50.548;8.778;2023-12-28T18:38:06;3.5;;;2.4;;
51491;SDS011;37569;50.548;8.778;2023-12-28T18:43:06;3.5;;;2.3;;
51491;SDS011;37569;50.548;8.778;2023-12-28T18:48:06;2.7;;;2.3;;
51491;SDS011;37569;50.548;8.778;2023-12-28T18:53:07;4;;;2.5;;
51491;SDS011;37569;50.548;8.778;2023-12-28T18:58:07;4;;;2.6;;
51491;SDS011;37569;50.548;8.778;2023-12-28T19:03:08;3.8;;;2.6;;
51491;SDS011;37569;50.548;8.778;2023-12-28T19:08:08;4.2;;;3;;
51491;SDS011;37569;50.548;8.778;2023-12-28T19:13:08;4.1;;;2.7;;
51491;SDS011;37569;50.548;8.778;2023-12-28T19:18:09;5.6;;;2.9;;
51491;SDS011;37569;50.548;8.778;2023-12-28T19:23:09;6;;;3.2;;
51491;SDS011;37569;50.548;8.778;2023-12-28T19:28:09;4.2;;;2.8;;
51491;SDS011;37569;50.548;8.778;2023-12-28T19:33:10;4.1;;;2.7;;
51491;SDS011;37569;50.548;8.778;2023-12-28T19:38:10;6.3;;;3.5;;
51491;SDS011;37569;50.548;8.778;2023-12-28T19:43:11;6.1;;;4.1;;
51491;SDS011;37569;50.548;8.778;2023-12-28T19:48:11;5.6;;;3.3;;
51491;SDS011;37569;50.548;8.778;2023-12-28T19:53:11;5.2;;;3.5;;
51491;SDS011;37569;50.548;8.778;2023-12-28T19:58:12;3.8;;;3.1;;
51491;SDS011;37569;50.548;8.778;2023-12-28T20:03:12;5.2;;;3.6;;
51491;SDS011;37569;50.548;8.778;2023-12-28T20:08:13;4.1;;;3.4;;
51491;SDS011;37569;50.548;8.778;2023-12-28T20:13:13;5.8;;;3.7;;
51491;SDS011;37569;50.548;8.778;2023-12-28T20:18:13;4.2;;;3.6;;
51491;SDS011;37569;50.548;8.778;2023-12-28T20:23:14;5.5;;;3.9;;
51491;SDS011;37569;50.548;8.778;2023-12-28T20:28:14;4.8;;;3.4;;
51491;SDS011;37569;50.548;8.778;2023-12-28T20:33:14;3.2;;;2.9;;
51491;SDS011;37569;50.548;8.778;2023-12-28T20:38:15;4.2;;;3.1;;
51491;SDS011;37569;50.548;8.778;2023-12-28T20:43:15;3.8;;;3.4;;
51491;SDS011;37569;50.548;8.778;2023-12-28T20:48:16;4.7;;;3.6;;
51491;SDS011;37569;50.548;8.778;2023-12-28T20:53:16;4.5;;;3.7;;
51491;SDS011;37569;50.548;8.778;2023-12-28T20:58:17;4;;;3.5;;
51491;SDS011;37569;50.548;8.778;2023-12-28T21:03:17;5.1;;;3.6;;
51491;SDS011;37569;50.548;8.778;2023-12-28T21:08:17;5.1;;;3.7;;
51491;SDS011;37569;50.548;8.778;2023-12-28T21:13:18;4.6;;;3.8;;
51491;SDS011;37569;50.548;8.778;2023-12-28T21:18:18;6.8;;;4.9;;
51491;SDS011;37569;50.548;8.778;2023-12-28T21:23:19;6.1;;;5;;
51491;SDS011;37569;50.548;8.778;2023-12-28T21:28:19;9.1;;;7.1;;
51491;SDS011;37569;50.548;8.778;2023-12-28T21:33:19;9.1;;;6.4;;
51491;SDS011;37569;50.548;8.778;2023-12-28T21:38:20;8.4;;;6;;
51491;SDS011;37569;50.548;8.778;2023-12-28T21:43:20;10.3;;;7.4;;
51491;SDS011;37569;50.548;8.778;2023-12-28T21:48:20;7.4;;;5.6;;
51491;SDS011;37569;50.548;8.778;2023-12-28T21:53:21;7.9;;;5.5;;
51491;SDS011;37569;50.548;8.778;2023-12-28T21:58:21;7.6;;;5;;
51491;SDS011;37569;50.548;8.778;2023-12-28T22:03:21;6.5;;;4.6;;
51491;SDS011;37569;50.548;8.778;2023-12-28T22:08:22;6.4;;;5.5;;
51491;SDS011;37569;50.548;8.778;2023-12-28T22:13:22;7.2;;;5.1;;
51491;SDS011;37569;50.548;8.778;2023-12-28T22:18:22;6.1;;;4.7;;
51491;SDS011;37569;50.548;8.778;2023-12-28T22:23:23;6.1;;;4.5;;
51491;SDS011;37569;50.548;8.778;2023-12-28T22:28:23;5.8;;;4.3;;
51491;SDS011;37569;50.548;8.778;2023-12-28T22:33:23;7.2;;;4.6;;
51491;SDS011;37569;50.548;8.778;2023-12-28T22:38:24;5.6;;;4.2;;
51491;SDS011;37569;50.548;8.778;2023-12-28T22:43:24;5.7;;;4;;
51491;SDS011;37569;50.548;8.778;2023-12-28T22:48:25;5.1;;;3.9;;
51491;SDS011;37569;50.548;8.778;2023-12-28T22:53:25;5.5;;;3.8;;
51491;SDS011;37569;50.548;8.778;2023-12-28T22:58:25;4.1;;;3.7;;
51491;SDS011;37569;50.548;8.778;2023-12-28T23:03:26;5.5;;;3.7;;
51491;SDS011;37569;50.548;8.778;2023-12-28T23:08:26;4.4;;;3.7;;
51491;SDS011;37569;50.548;8.778;2023-12-28T23:13:26;4.9;;;3.6;;
51491;SDS011;37569;50.548;8.778;2023-12-28T23:18:27;4.5;;;3.3;;
51491;SDS011;37569;50.548;8.778;2023-12-28T23:23:27;3.6;;;3.3;;
51491;SDS011;37569;50.548;8.778;2023-12-28T23:28:27;4.6;;;3.4;;
51491;SDS011;37569;50.548;8.778;2023-12-28T23:33:28;3.8;;;3.1;;
51491;SDS011;37569;50.548;8.778;2023-12-28T23:38:28;3.1;;;2.8;;
51491;SDS011;37569;50.548;8.778;2023-12-28T23:43:29;3.3;;;3;;
51491;SDS011;37569;50.548;8.778;2023-12-28T23:48:29;2.9;;;2.7;;
51491;SDS011;37569;50.548;8.778;2023-12-28T23:53:29;3;;;2.5;;
51491;SDS011;37569;50.548;8.778;2023-12-28T23:58:30;3;;;2.4;;
